Cotton Gin, Texas
Current Conditions -  °F | °C
As of 12:15 PM on Friday 19 Dec 2014 (Local Time) from KLXY Reporting Station
Overcast Overcast  
Wind Chill: 44°   Ceiling: 300
Heat Index: 49°   Visibility: 10mi
Dew Point: 48°   Wind: 12mph
Humidity: 97%   Direction: 350°N
Pressure: 30.12"   Gusts: NA
Location:  31.6463°N, 96.2786°W
Report Text: KLXY 191815Z AUTO 35010KT 10SM OVC003 09/09 A3012 RMK AO2 T00930088
Loading
Personal Weather Stations






























Interactive Weather Map New forecast layout! Learn more

10-Day Weather Forecast

Advertisements
Track Severe Weather on mobile